createdAt,value
2022-10-23T00:01:33.779Z,100.00
2022-10-23T00:04:21.197Z,100.00
2022-10-23T00:06:49.184Z,100.00
2022-10-23T00:09:18.426Z,100.00
2022-10-23T00:11:47.098Z,100.00
2022-10-23T00:14:14.666Z,100.00
2022-10-23T00:16:41.270Z,100.00
2022-10-23T00:19:07.933Z,100.00
2022-10-23T00:21:34.922Z,100.00
2022-10-23T00:24:01.847Z,100.00
2022-10-23T00:26:28.542Z,100.00
2022-10-23T00:28:55.460Z,100.00
2022-10-23T00:31:24.051Z,100.00
2022-10-23T00:33:51.900Z,100.00
2022-10-23T00:36:20.563Z,100.00
2022-10-23T00:38:47.735Z,100.00
2022-10-23T00:41:23.454Z,100.00
2022-10-23T00:44:02.134Z,100.00
2022-10-23T00:46:29.210Z,100.00
2022-10-23T00:48:56.982Z,100.00
2022-10-23T00:51:26.092Z,100.00
2022-10-23T00:54:06.558Z,100.00
2022-10-23T00:56:46.405Z,100.00
2022-10-23T00:59:13.540Z,100.00
2022-10-23T01:01:41.002Z,100.00
2022-10-23T01:04:08.294Z,100.00
2022-10-23T01:06:43.508Z,100.00
2022-10-23T01:09:39.023Z,100.00
2022-10-23T01:12:10.773Z,100.00
2022-10-23T01:15:06.450Z,100.00
2022-10-23T01:17:44.569Z,100.00
2022-10-23T01:20:30.136Z,100.00
2022-10-23T01:23:15.007Z,100.00
2022-10-23T01:25:56.136Z,100.00
2022-10-23T01:28:31.729Z,100.00
2022-10-23T01:31:00.713Z,100.00
2022-10-23T01:33:49.211Z,100.00
2022-10-23T01:36:18.703Z,100.00
2022-10-23T01:38:53.820Z,100.00
2022-10-23T01:41:27.287Z,100.00
2022-10-23T01:44:05.341Z,100.00
2022-10-23T01:46:33.979Z,100.00
2022-10-23T01:49:03.013Z,100.00
2022-10-23T01:51:32.746Z,100.00
2022-10-23T01:54:01.346Z,100.00
2022-10-23T01:56:34.009Z,100.00
2022-10-23T01:59:05.674Z,100.00
2022-10-23T02:01:34.841Z,100.00
2022-10-23T02:04:04.268Z,100.00
2022-10-23T02:06:30.900Z,100.00
2022-10-23T02:08:57.589Z,100.00
2022-10-23T02:11:24.576Z,100.00
2022-10-23T02:14:13.628Z,100.00
2022-10-23T02:16:51.460Z,100.00
2022-10-23T02:19:26.895Z,100.00
2022-10-23T02:22:02.210Z,100.00
2022-10-23T02:24:33.114Z,100.00
2022-10-23T02:27:04.351Z,100.00
2022-10-23T02:29:34.940Z,100.00
2022-10-23T02:32:02.038Z,100.00
2022-10-23T02:34:28.739Z,100.00
2022-10-23T02:36:55.396Z,100.00
2022-10-23T02:39:26.730Z,100.00
2022-10-23T02:42:11.579Z,100.00
2022-10-23T02:45:02.809Z,100.00
2022-10-23T02:47:54.122Z,100.00
2022-10-23T02:50:20.664Z,100.00
2022-10-23T02:52:50.040Z,100.00
2022-10-23T02:55:48.448Z,100.00
2022-10-23T02:58:26.927Z,100.00
2022-10-23T03:01:08.103Z,100.00
2022-10-23T03:03:52.561Z,100.00
2022-10-23T03:06:19.774Z,100.00
2022-10-23T03:08:53.720Z,100.00
2022-10-23T03:11:20.925Z,100.00
2022-10-23T03:13:47.520Z,100.00
2022-10-23T03:16:14.162Z,100.00
2022-10-23T03:18:40.853Z,100.00
2022-10-23T03:21:07.921Z,100.00
2022-10-23T03:23:34.561Z,100.00
2022-10-23T03:26:01.145Z,100.00
2022-10-23T03:28:27.725Z,100.00
2022-10-23T03:30:54.324Z,100.00
2022-10-23T03:33:20.904Z,100.00
2022-10-23T03:38:20.234Z,99.97
2022-10-23T03:40:46.953Z,100.00
2022-10-23T03:43:13.585Z,100.00
2022-10-23T03:45:40.266Z,100.00
2022-10-23T03:48:07.903Z,100.00
2022-10-23T03:50:35.565Z,100.00
2022-10-23T03:53:02.317Z,100.00
2022-10-23T03:55:29.693Z,100.00
2022-10-23T03:57:56.346Z,100.00
2022-10-23T04:00:23.412Z,100.00
2022-10-23T04:02:50.016Z,100.00
2022-10-23T04:05:17.121Z,100.00
2022-10-23T04:07:43.706Z,100.00
2022-10-23T04:10:10.280Z,100.00
2022-10-23T04:12:36.938Z,100.00
2022-10-23T04:15:03.965Z,100.00
2022-10-23T04:17:30.584Z,100.00
2022-10-23T04:19:57.225Z,100.00
2022-10-23T04:22:26.078Z,100.00
2022-10-23T04:24:54.991Z,100.00
2022-10-23T04:27:21.735Z,100.00
2022-10-23T04:29:48.418Z,100.00
2022-10-23T04:32:15.197Z,100.00
2022-10-23T04:34:41.802Z,100.00
2022-10-23T04:37:08.464Z,100.00
2022-10-23T04:39:35.031Z,100.00
2022-10-23T04:42:01.691Z,100.00
2022-10-23T04:44:28.300Z,100.00
2022-10-23T04:46:54.870Z,100.00
2022-10-23T04:49:21.571Z,100.00
2022-10-23T04:51:48.205Z,100.00
2022-10-23T04:54:14.790Z,100.00
2022-10-23T04:56:41.379Z,100.00
2022-10-23T04:59:08.347Z,100.00
2022-10-23T05:01:35.252Z,100.00
2022-10-23T05:04:01.990Z,100.00
2022-10-23T05:06:28.571Z,100.00
2022-10-23T05:08:55.223Z,100.00
2022-10-23T05:11:21.993Z,100.00
2022-10-23T05:13:48.612Z,100.00
2022-10-23T05:16:49.042Z,100.00
2022-10-23T05:19:24.234Z,100.00
2022-10-23T05:21:52.625Z,100.00
2022-10-23T05:24:19.232Z,100.00
2022-10-23T05:26:46.049Z,100.00
2022-10-23T05:29:12.729Z,100.00
2022-10-23T05:31:39.575Z,100.00
2022-10-23T05:34:08.759Z,100.00
2022-10-23T05:36:37.993Z,100.00
2022-10-23T05:39:05.046Z,100.00
2022-10-23T05:41:31.910Z,100.00
2022-10-23T05:43:58.495Z,100.00
2022-10-23T05:46:25.150Z,100.00
2022-10-23T05:48:52.378Z,100.00
2022-10-23T05:51:20.406Z,100.00
2022-10-23T05:53:47.004Z,100.00
2022-10-23T05:56:13.586Z,100.00
2022-10-23T05:58:40.184Z,100.00
2022-10-23T06:01:08.381Z,100.00
2022-10-23T06:03:35.776Z,100.00
2022-10-23T06:06:02.373Z,100.00
2022-10-23T06:08:29.696Z,100.00
2022-10-23T06:10:56.514Z,100.00
2022-10-23T06:13:23.226Z,100.00
2022-10-23T06:15:49.957Z,100.00
2022-10-23T06:18:16.586Z,100.00
2022-10-23T06:20:43.193Z,100.00
2022-10-23T06:23:09.796Z,100.00
2022-10-23T06:25:36.434Z,100.00
2022-10-23T06:28:03.015Z,100.00
2022-10-23T06:30:29.703Z,100.00
2022-10-23T06:32:56.481Z,100.00
2022-10-23T06:35:23.048Z,100.00
2022-10-23T06:37:49.655Z,100.00
2022-10-23T06:40:16.481Z,100.00
2022-10-23T06:42:43.316Z,100.00
2022-10-23T06:45:10.201Z,100.00
2022-10-23T06:47:36.774Z,100.00
2022-10-23T06:50:03.686Z,100.00
2022-10-23T06:52:45.809Z,100.00
2022-10-23T06:55:13.458Z,100.00
2022-10-23T06:57:40.211Z,100.00
2022-10-23T07:00:07.722Z,100.00
2022-10-23T07:02:34.307Z,100.00
2022-10-23T07:05:00.874Z,100.00
2022-10-23T07:07:29.899Z,100.00
2022-10-23T07:09:56.620Z,100.00
2022-10-23T07:12:23.245Z,100.00
2022-10-23T07:14:50.513Z,100.00
2022-10-23T07:17:17.129Z,100.00
2022-10-23T07:19:43.683Z,100.00
2022-10-23T07:22:13.271Z,100.00
2022-10-23T07:24:42.700Z,100.00
2022-10-23T07:27:09.364Z,100.00
2022-10-23T07:29:35.959Z,100.00
2022-10-23T07:32:02.835Z,100.00
2022-10-23T07:34:29.483Z,100.00
2022-10-23T07:36:56.062Z,100.00
2022-10-23T07:39:23.276Z,100.00
2022-10-23T07:41:49.970Z,100.00
2022-10-23T07:44:17.505Z,100.00
2022-10-23T07:46:44.097Z,100.00
2022-10-23T07:49:11.618Z,100.00
2022-10-23T07:51:38.200Z,100.00
2022-10-23T07:54:04.877Z,100.00
2022-10-23T07:56:31.471Z,100.00
2022-10-23T07:58:58.264Z,100.00
2022-10-23T08:01:35.318Z,100.00
2022-10-23T08:04:02.061Z,100.00
2022-10-23T08:06:28.947Z,100.00
2022-10-23T08:08:55.686Z,100.00
2022-10-23T08:11:24.406Z,100.00
2022-10-23T08:13:52.140Z,100.00
2022-10-23T08:16:18.734Z,100.00
2022-10-23T08:18:45.330Z,100.00
2022-10-23T08:21:12.154Z,100.00
2022-10-23T08:23:38.779Z,100.00
2022-10-23T08:26:06.644Z,100.00
2022-10-23T08:28:33.855Z,100.00
2022-10-23T08:31:16.431Z,100.00
2022-10-23T08:33:43.302Z,100.00
2022-10-23T08:36:19.998Z,100.00
2022-10-23T08:38:46.716Z,100.00
2022-10-23T08:41:29.641Z,100.00
2022-10-23T08:44:17.445Z,100.00
2022-10-23T08:46:49.697Z,100.00
2022-10-23T08:49:22.318Z,100.00
2022-10-23T08:51:52.282Z,100.00
2022-10-23T08:54:25.098Z,100.00
2022-10-23T08:57:03.904Z,100.00
2022-10-23T08:59:36.915Z,100.00
2022-10-23T09:02:23.263Z,100.00
2022-10-23T09:04:53.896Z,100.00
2022-10-23T09:08:05.010Z,100.00
2022-10-23T09:10:37.803Z,100.00
2022-10-23T09:13:32.081Z,100.00
2022-10-23T09:16:40.601Z,100.00
2022-10-23T09:19:19.007Z,100.00
2022-10-23T09:21:50.154Z,100.00
2022-10-23T09:24:19.551Z,100.00
2022-10-23T09:26:48.356Z,100.00
2022-10-23T09:29:25.825Z,100.00
2022-10-23T09:31:55.027Z,100.00
2022-10-23T09:34:24.200Z,100.00
2022-10-23T09:39:31.842Z,100.00
2022-10-23T09:41:59.757Z,100.00
2022-10-23T09:44:30.163Z,100.00
2022-10-23T09:47:05.729Z,100.00
2022-10-23T09:49:33.974Z,100.00
2022-10-23T09:52:02.162Z,100.00
2022-10-23T09:54:39.512Z,100.00
2022-10-23T09:57:24.211Z,100.00
2022-10-23T09:59:53.624Z,100.00
2022-10-23T10:02:35.169Z,100.00
2022-10-23T10:05:21.618Z,100.00
2022-10-23T10:08:17.089Z,100.00
2022-10-23T10:11:11.857Z,100.00
2022-10-23T10:13:52.632Z,100.00
2022-10-23T10:16:44.011Z,100.00
2022-10-23T10:19:27.439Z,100.00
2022-10-23T10:22:05.348Z,100.00
2022-10-23T10:24:42.235Z,100.00
2022-10-23T10:27:35.139Z,100.00
2022-10-23T10:30:18.264Z,100.00
2022-10-23T10:32:50.719Z,100.00
2022-10-23T10:35:37.025Z,100.00
2022-10-23T10:38:32.418Z,100.00
2022-10-23T10:41:40.053Z,100.00
2022-10-23T10:44:14.262Z,100.00
2022-10-23T10:46:58.568Z,100.00
2022-10-23T10:49:46.012Z,100.00
2022-10-23T10:52:32.856Z,100.00
2022-10-23T10:55:14.348Z,100.00
2022-10-23T10:58:31.140Z,100.00
2022-10-23T11:01:00.816Z,100.00
2022-10-23T11:03:48.861Z,100.00
2022-10-23T11:06:21.853Z,100.00
2022-10-23T11:08:57.309Z,100.00
2022-10-23T11:11:37.797Z,100.00
2022-10-23T11:14:04.537Z,100.00
2022-10-23T11:16:37.802Z,100.00
2022-10-23T11:19:31.112Z,100.00
2022-10-23T11:22:09.389Z,100.00
2022-10-23T11:24:49.142Z,100.00
2022-10-23T11:27:43.295Z,100.00
2022-10-23T11:30:25.949Z,100.00
2022-10-23T11:33:09.394Z,100.00
2022-10-23T11:35:48.900Z,100.00
2022-10-23T11:38:19.160Z,100.00
2022-10-23T11:40:55.061Z,100.00
2022-10-23T11:43:33.646Z,100.00
2022-10-23T11:46:23.322Z,99.73
2022-10-23T11:48:50.862Z,98.70
2022-10-23T11:51:29.971Z,100.00
2022-10-23T11:54:21.974Z,99.29
2022-10-23T11:56:55.754Z,95.00
2022-10-23T11:59:31.622Z,94.96
2022-10-23T12:02:01.471Z,95.35
2022-10-23T12:04:39.245Z,97.57
2022-10-23T12:07:36.223Z,96.12
2022-10-23T12:10:18.751Z,97.66
2022-10-23T12:12:56.945Z,95.49
2022-10-23T12:15:24.004Z,97.39
2022-10-23T12:17:53.223Z,93.38
2022-10-23T12:20:27.151Z,99.08
2022-10-23T12:23:02.789Z,99.86
2022-10-23T12:25:54.414Z,91.80
2022-10-23T12:28:32.660Z,94.83
2022-10-23T12:31:11.235Z,96.00
2022-10-23T12:33:52.719Z,93.89
2022-10-23T12:36:54.757Z,91.50
2022-10-23T12:39:34.057Z,90.33
2022-10-23T12:42:00.905Z,92.78
2022-10-23T12:44:28.113Z,88.07
2022-10-23T12:46:57.754Z,89.83
2022-10-23T12:49:26.669Z,92.84
2022-10-23T12:51:58.833Z,94.77
2022-10-23T12:54:26.903Z,90.62
2022-10-23T12:56:53.705Z,86.11
2022-10-23T12:59:33.415Z,85.47
2022-10-23T13:02:00.237Z,84.33
2022-10-23T13:04:32.223Z,86.13
2022-10-23T13:07:02.553Z,84.18
2022-10-23T13:09:33.704Z,82.94
2022-10-23T13:12:03.501Z,85.55
2022-10-23T13:14:34.486Z,87.92
2022-10-23T13:17:06.707Z,90.21
2022-10-23T13:19:33.737Z,88.71
2022-10-23T13:22:02.033Z,87.00
2022-10-23T13:24:30.367Z,84.75
2022-10-23T13:26:57.893Z,82.92
2022-10-23T13:29:31.347Z,83.69
2022-10-23T13:32:10.156Z,85.38
2022-10-23T13:34:36.839Z,85.09
2022-10-23T13:37:23.410Z,81.84
2022-10-23T13:40:07.501Z,86.04
2022-10-23T13:42:34.059Z,84.05
2022-10-23T13:45:00.670Z,85.48
2022-10-23T13:47:27.276Z,87.07
2022-10-23T13:49:53.881Z,87.84
2022-10-23T13:52:22.063Z,89.25
2022-10-23T13:54:48.907Z,86.08
2022-10-23T13:57:16.078Z,87.40
2022-10-23T13:59:42.723Z,85.79
2022-10-23T14:02:21.948Z,87.46
2022-10-23T14:04:50.008Z,86.59
2022-10-23T14:07:17.274Z,87.69
2022-10-23T14:09:44.462Z,82.61
2022-10-23T14:12:11.095Z,85.37
2022-10-23T14:14:37.919Z,86.91
2022-10-23T14:17:04.818Z,89.63
2022-10-23T14:19:33.404Z,90.77
2022-10-23T14:21:59.996Z,91.11
2022-10-23T14:24:26.643Z,92.50
2022-10-23T14:26:53.370Z,94.32
2022-10-23T14:29:24.094Z,92.40
2022-10-23T14:31:51.905Z,93.33
2022-10-23T14:34:18.989Z,94.66
2022-10-23T14:36:50.664Z,90.86
2022-10-23T14:39:17.908Z,91.21
2022-10-23T14:41:44.776Z,89.89
2022-10-23T14:44:11.384Z,84.34
2022-10-23T14:46:38.003Z,88.90
2022-10-23T14:49:04.594Z,92.93
2022-10-23T14:51:31.188Z,92.98
2022-10-23T14:53:59.838Z,92.97
2022-10-23T14:56:26.896Z,95.25
2022-10-23T14:58:54.490Z,95.92
2022-10-23T15:01:21.148Z,98.02
2022-10-23T15:03:47.846Z,96.70
2022-10-23T15:06:17.591Z,97.84
2022-10-23T15:08:45.043Z,97.30
2022-10-23T15:11:12.686Z,96.98
2022-10-23T15:13:39.543Z,96.16
2022-10-23T15:16:08.858Z,96.77
2022-10-23T15:21:08.669Z,99.18
2022-10-23T15:23:37.414Z,99.53
2022-10-23T15:26:07.723Z,99.06
2022-10-23T15:28:34.430Z,100.00
2022-10-23T15:31:01.334Z,99.23
2022-10-23T15:33:28.293Z,97.38
2022-10-23T15:35:55.456Z,97.44
2022-10-23T15:38:22.901Z,99.20
2022-10-23T15:40:49.575Z,98.64
2022-10-23T15:43:17.670Z,98.83
2022-10-23T15:45:44.287Z,94.08
2022-10-23T15:48:10.889Z,96.75
2022-10-23T15:50:37.483Z,97.80
2022-10-23T15:53:04.488Z,96.63
2022-10-23T15:55:31.113Z,96.29
2022-10-23T15:57:57.696Z,98.27
2022-10-23T16:00:24.298Z,100.00
2022-10-23T16:02:50.960Z,100.00
2022-10-23T16:05:17.616Z,100.00
2022-10-23T16:07:44.190Z,100.00
2022-10-23T16:10:10.763Z,100.00
2022-10-23T16:12:37.350Z,100.00
2022-10-23T16:15:04.285Z,100.00
2022-10-23T16:17:30.896Z,100.00
2022-10-23T16:19:57.483Z,100.00
2022-10-23T16:22:24.131Z,99.36
2022-10-23T16:24:50.695Z,99.84
2022-10-23T16:27:17.258Z,98.96
2022-10-23T16:29:43.863Z,100.00
2022-10-23T16:32:10.435Z,100.00
2022-10-23T16:34:37.054Z,100.00
2022-10-23T16:37:03.624Z,100.00
2022-10-23T16:39:30.212Z,100.00
2022-10-23T16:41:57.288Z,100.00
2022-10-23T16:44:23.969Z,99.54
2022-10-23T16:46:50.549Z,99.15
2022-10-23T16:49:17.126Z,98.70
2022-10-23T16:51:43.772Z,95.70
2022-10-23T16:54:10.363Z,96.94
2022-10-23T16:56:36.948Z,97.00
2022-10-23T16:59:03.713Z,95.59
2022-10-23T17:01:31.729Z,94.44
2022-10-23T17:03:58.483Z,93.20
2022-10-23T17:06:30.619Z,94.31
2022-10-23T17:08:58.883Z,94.35
2022-10-23T17:11:31.482Z,97.28
2022-10-23T17:14:07.338Z,97.98
2022-10-23T17:16:38.279Z,95.38
2022-10-23T17:19:15.995Z,95.60
2022-10-23T17:21:55.172Z,92.49
2022-10-23T17:24:23.011Z,90.91
2022-10-23T17:26:49.839Z,93.89
2022-10-23T17:29:16.639Z,96.15
2022-10-23T17:31:48.609Z,94.34
2022-10-23T17:34:18.966Z,96.04
2022-10-23T17:36:49.043Z,95.12
2022-10-23T17:39:18.593Z,96.95
2022-10-23T17:41:46.155Z,99.15
2022-10-23T17:44:12.857Z,91.85
2022-10-23T17:46:39.455Z,91.86
2022-10-23T17:49:06.744Z,92.40
2022-10-23T17:51:35.491Z,94.19
2022-10-23T17:54:07.883Z,95.61
2022-10-23T17:56:36.317Z,98.73
2022-10-23T17:59:06.686Z,97.82
2022-10-23T18:01:33.979Z,96.81
2022-10-23T18:04:03.715Z,97.36
2022-10-23T18:06:37.223Z,97.47
2022-10-23T18:09:05.345Z,95.34
2022-10-23T18:11:36.229Z,95.35
2022-10-23T18:14:04.973Z,96.56
2022-10-23T18:16:32.796Z,98.46
2022-10-23T18:19:00.749Z,99.30
2022-10-23T18:21:27.982Z,98.24
2022-10-23T18:23:55.096Z,100.00
2022-10-23T18:26:27.258Z,100.00
2022-10-23T18:28:56.775Z,99.63
2022-10-23T18:31:25.934Z,99.59
2022-10-23T18:34:01.310Z,99.26
2022-10-23T18:36:31.259Z,100.00
2022-10-23T18:38:58.193Z,100.00
2022-10-23T18:41:25.073Z,100.00
2022-10-23T18:43:52.338Z,100.00
2022-10-23T18:46:20.331Z,98.05
2022-10-23T18:48:47.973Z,96.35
2022-10-23T18:51:17.615Z,97.87
2022-10-23T18:53:44.838Z,98.09
2022-10-23T18:56:11.434Z,94.20
2022-10-23T18:58:38.014Z,94.44
2022-10-23T19:01:04.758Z,93.77
2022-10-23T19:03:31.394Z,97.05
2022-10-23T19:05:57.966Z,97.31
2022-10-23T19:08:24.552Z,97.52
2022-10-23T19:10:52.837Z,99.49
2022-10-23T19:13:19.505Z,100.00
2022-10-23T19:15:46.161Z,100.00
2022-10-23T19:18:12.790Z,98.36
2022-10-23T19:20:41.774Z,94.64
2022-10-23T19:23:10.686Z,94.62
2022-10-23T19:25:38.352Z,92.70
2022-10-23T19:28:05.140Z,95.17
2022-10-23T19:30:32.690Z,97.06
2022-10-23T19:32:59.837Z,99.77
2022-10-23T19:35:26.539Z,97.81
2022-10-23T19:37:53.149Z,95.74
2022-10-23T19:40:19.731Z,97.97
2022-10-23T19:42:46.365Z,100.00
2022-10-23T19:45:14.810Z,100.00
2022-10-23T19:47:42.531Z,100.00
2022-10-23T19:50:10.310Z,98.93
2022-10-23T19:52:37.447Z,97.08
2022-10-23T19:55:05.638Z,98.58
2022-10-23T19:57:33.091Z,99.51
2022-10-23T20:00:00.423Z,97.94
2022-10-23T20:02:27.607Z,99.22
2022-10-23T20:04:54.340Z,99.62
2022-10-23T20:07:21.043Z,100.00
2022-10-23T20:09:47.636Z,100.00
2022-10-23T20:12:14.326Z,100.00
2022-10-23T20:14:40.932Z,100.00
2022-10-23T20:17:07.497Z,100.00
2022-10-23T20:19:34.056Z,100.00
2022-10-23T20:22:00.627Z,100.00
2022-10-23T20:24:27.215Z,100.00
2022-10-23T20:26:55.393Z,100.00
2022-10-23T20:29:23.079Z,100.00
2022-10-23T20:31:49.667Z,100.00
2022-10-23T20:34:16.334Z,100.00
2022-10-23T20:36:46.779Z,100.00
2022-10-23T20:39:22.824Z,100.00
2022-10-23T20:41:56.587Z,100.00
2022-10-23T20:44:24.091Z,100.00
2022-10-23T20:46:50.884Z,100.00
2022-10-23T20:49:18.506Z,100.00
2022-10-23T20:51:45.817Z,99.87
2022-10-23T20:54:12.404Z,100.00
2022-10-23T20:56:39.889Z,100.00
2022-10-23T20:59:17.460Z,100.00
2022-10-23T21:01:49.485Z,100.00
2022-10-23T21:04:18.107Z,100.00
2022-10-23T21:07:08.262Z,100.00
2022-10-23T21:09:32.142Z,100.00
2022-10-23T21:11:58.822Z,100.00
2022-10-23T21:14:25.397Z,100.00
2022-10-23T21:16:51.971Z,100.00
2022-10-23T21:19:18.665Z,100.00
2022-10-23T21:21:45.242Z,100.00
2022-10-23T21:24:16.231Z,100.00
2022-10-23T21:26:43.810Z,99.52
2022-10-23T21:29:19.163Z,100.00
2022-10-23T21:31:53.025Z,100.00
2022-10-23T21:34:20.055Z,100.00
2022-10-23T21:37:14.079Z,100.00
2022-10-23T21:39:33.450Z,100.00
2022-10-23T21:42:00.017Z,100.00
2022-10-23T21:44:26.637Z,100.00
2022-10-23T21:46:53.419Z,100.00
2022-10-23T21:49:20.033Z,100.00
2022-10-23T21:51:46.672Z,100.00
2022-10-23T21:54:14.173Z,100.00
2022-10-23T21:56:49.739Z,100.00
2022-10-23T21:59:20.205Z,100.00
2022-10-23T22:01:48.541Z,100.00
2022-10-23T22:04:18.092Z,100.00
2022-10-23T22:06:46.523Z,100.00
2022-10-23T22:09:16.212Z,100.00
2022-10-23T22:11:42.847Z,100.00
2022-10-23T22:14:09.436Z,100.00
2022-10-23T22:16:36.080Z,100.00
2022-10-23T22:19:02.896Z,100.00
2022-10-23T22:21:30.253Z,100.00
2022-10-23T22:23:58.802Z,100.00
2022-10-23T22:26:35.165Z,100.00
2022-10-23T22:29:05.747Z,100.00
2022-10-23T22:31:34.022Z,100.00
2022-10-23T22:34:13.116Z,100.00
2022-10-23T22:36:48.746Z,100.00
2022-10-23T22:39:15.579Z,100.00
2022-10-23T22:41:42.283Z,100.00
2022-10-23T22:44:11.524Z,100.00
2022-10-23T22:46:38.752Z,100.00
2022-10-23T22:51:37.556Z,100.00
2022-10-23T22:54:04.301Z,100.00
2022-10-23T22:56:30.975Z,100.00
2022-10-23T22:58:58.348Z,100.00
2022-10-23T23:01:31.940Z,100.00
2022-10-23T23:04:08.622Z,100.00
2022-10-23T23:06:45.735Z,100.00
2022-10-23T23:09:17.024Z,100.00
2022-10-23T23:11:51.592Z,100.00
2022-10-23T23:14:23.098Z,100.00
2022-10-23T23:16:51.635Z,100.00
2022-10-23T23:19:18.248Z,100.00
2022-10-23T23:21:44.803Z,99.76
2022-10-23T23:24:11.962Z,99.79
2022-10-23T23:26:38.753Z,100.00
2022-10-23T23:29:05.611Z,99.87
2022-10-23T23:31:32.174Z,100.00
2022-10-23T23:33:58.758Z,100.00
2022-10-23T23:36:27.037Z,100.00
2022-10-23T23:38:54.175Z,100.00
2022-10-23T23:41:21.818Z,100.00
2022-10-23T23:43:48.922Z,100.00
2022-10-23T23:46:16.432Z,100.00
2022-10-23T23:48:43.472Z,100.00
2022-10-23T23:51:10.058Z,100.00
2022-10-23T23:53:36.641Z,100.00
2022-10-23T23:56:03.361Z,100.00
2022-10-23T23:58:29.945Z,100.00
